Time,TemperatureF,DewpointF,PressureIn,WindDirection,WindDirectionDegrees,WindSpeedMPH,WindSpeedGustMPH,Humidity,HourlyPrecipIn,Conditions,Clouds,dailyrainin,SoftwareType,DateUTC
2013-05-14 00:01:00,46.9,29.3,29.87,WNW,285,0.0,0.0,50,0.00,,,0.00,VWS V14.00,2013-05-14 04:01:00,
2013-05-14 00:02:00,46.9,29.3,29.87,WNW,284,0.0,0.0,50,0.00,,,0.00,VWS V14.00,2013-05-14 04:02:00,
2013-05-14 00:05:00,46.8,28.6,29.87,WNW,284,0.0,0.0,49,0.00,,,0.00,VWS V14.00,2013-05-14 04:05:00,
2013-05-14 00:10:00,46.8,28.6,29.87,WNW,284,0.0,0.0,49,0.00,,,0.00,VWS V14.00,2013-05-14 04:10:00,
2013-05-14 00:11:00,46.6,28.5,29.87,WNW,284,0.0,0.0,49,0.00,,,0.00,VWS V14.00,2013-05-14 04:11:00,
2013-05-14 00:16:00,46.6,28.5,29.87,WNW,284,0.0,0.0,49,0.00,,,0.00,VWS V14.00,2013-05-14 04:16:00,
2013-05-14 00:17:00,46.6,29.0,29.87,WNW,284,0.0,0.0,50,0.00,,,0.00,VWS V14.00,2013-05-14 04:17:00,
2013-05-14 00:22:00,46.6,28.5,29.87,WNW,283,0.0,0.0,49,0.00,,,0.00,VWS V14.00,2013-05-14 04:22:00,
2013-05-14 00:27:00,46.6,28.5,29.87,WNW,284,0.0,0.0,49,0.00,,,0.00,VWS V14.00,2013-05-14 04:27:00,
2013-05-14 00:33:00,46.6,28.5,29.87,WNW,286,0.0,0.0,49,0.00,,,0.00,VWS V14.00,2013-05-14 04:33:00,
2013-05-14 00:38:00,46.6,28.5,29.87,WNW,283,0.0,0.0,49,0.00,,,0.00,VWS V14.00,2013-05-14 04:38:00,
2013-05-14 00:44:00,46.8,28.6,29.87,WNW,286,0.0,0.0,49,0.00,,,0.00,VWS V14.00,2013-05-14 04:44:00,
2013-05-14 00:50:00,46.8,28.6,29.87,WNW,284,0.0,0.0,49,0.00,,,0.00,VWS V14.00,2013-05-14 04:50:00,
2013-05-14 00:55:00,46.8,28.1,29.87,SW,227,0.0,0.0,48,0.00,,,0.00,VWS V14.00,2013-05-14 04:55:00,
2013-05-14 01:00:00,46.8,28.1,29.87,SW,227,0.0,0.0,48,0.00,,,0.00,VWS V14.00,2013-05-14 05:00:00,
2013-05-14 01:05:00,46.8,28.1,29.87,SW,227,0.0,0.0,48,0.00,,,0.00,VWS V14.00,2013-05-14 05:05:00,
2013-05-14 01:10:00,46.9,28.3,29.87,SW,227,0.0,0.0,48,0.00,,,0.00,VWS V14.00,2013-05-14 05:10:00,
2013-05-14 01:15:00,46.9,28.3,29.87,SW,216,2.7,2.7,48,0.00,,,0.00,VWS V14.00,2013-05-14 05:15:00,
2013-05-14 01:20:00,46.9,28.3,29.87,SW,216,0.0,0.0,48,0.00,,,0.00,VWS V14.00,2013-05-14 05:20:00,
2013-05-14 01:25:00,46.9,28.3,29.87,SW,218,0.0,0.0,48,0.00,,,0.00,VWS V14.00,2013-05-14 05:25:00,
2013-05-14 01:30:00,47.1,27.9,29.87,SW,217,0.0,0.0,47,0.00,,,0.00,VWS V14.00,2013-05-14 05:30:00,
2013-05-14 01:35:00,47.1,27.9,29.87,SW,216,0.0,0.0,47,0.00,,,0.00,VWS V14.00,2013-05-14 05:35:00,
2013-05-14 01:40:00,47.1,27.9,29.87,SW,216,0.0,0.0,47,0.00,,,0.00,VWS V14.00,2013-05-14 05:40:00,
2013-05-14 01:45:00,47.1,27.9,29.84,SW,227,0.0,0.0,47,0.00,,,0.00,VWS V14.00,2013-05-14 05:45:00,
2013-05-14 01:51:00,47.1,29.0,29.84,West,272,2.2,2.2,49,0.00,,,0.00,VWS V14.00,2013-05-14 05:51:00,
2013-05-14 01:57:00,47.1,29.0,29.84,WSW,248,3.1,3.1,49,0.00,,,0.00,VWS V14.00,2013-05-14 05:57:00,
2013-05-14 02:02:00,47.1,28.5,29.84,NNW,334,0.0,0.0,48,0.00,,,0.00,VWS V14.00,2013-05-14 06:02:00,
2013-05-14 02:07:00,47.1,27.9,29.81,West,276,0.0,0.0,47,0.00,,,0.00,VWS V14.00,2013-05-14 06:07:00,
2013-05-14 02:12:00,47.3,28.1,29.81,WNW,284,0.0,0.0,47,0.00,,,0.00,VWS V14.00,2013-05-14 06:12:00,
2013-05-14 02:17:00,47.3,27.6,29.81,ESE,104,0.0,0.0,46,0.00,,,0.00,VWS V14.00,2013-05-14 06:17:00,
2013-05-14 02:23:00,47.3,27.0,29.81,South,169,3.6,3.6,45,0.00,,,0.00,VWS V14.00,2013-05-14 06:23:00,
2013-05-14 02:28:00,47.3,27.0,29.81,SSE,154,0.0,0.0,45,0.00,,,0.00,VWS V14.00,2013-05-14 06:28:00,
2013-05-14 02:33:00,47.5,27.2,29.81,North,1,0.0,0.0,45,0.00,,,0.00,VWS V14.00,2013-05-14 06:33:00,
2013-05-14 02:38:00,47.5,27.2,29.81,ESE,120,0.0,0.0,45,0.00,,,0.00,VWS V14.00,2013-05-14 06:38:00,
2013-05-14 02:43:00,47.5,26.7,29.81,NNW,344,0.0,0.0,44,0.00,,,0.00,VWS V14.00,2013-05-14 06:43:00,
2013-05-14 02:49:00,47.5,27.2,29.81,NNW,344,0.0,0.0,45,0.00,,,0.00,VWS V14.00,2013-05-14 06:49:00,
2013-05-14 02:54:00,47.5,27.2,29.81,SSW,202,0.0,3.1,45,0.00,,,0.00,VWS V14.00,2013-05-14 06:54:00,
2013-05-14 03:00:00,47.7,26.8,29.81,WSW,240,0.0,0.0,44,0.00,,,0.00,VWS V14.00,2013-05-14 07:00:00,
2013-05-14 03:05:00,47.7,26.8,29.81,SW,218,0.0,0.0,44,0.00,,,0.00,VWS V14.00,2013-05-14 07:05:00,
2013-05-14 03:11:00,47.7,26.3,29.81,SW,222,0.0,0.0,43,0.00,,,0.00,VWS V14.00,2013-05-14 07:11:00,
2013-05-14 03:17:00,47.8,26.4,29.81,SE,131,0.0,2.7,43,0.00,,,0.00,VWS V14.00,2013-05-14 07:17:00,
2013-05-14 03:22:00,47.8,27.0,29.81,SSE,166,0.0,0.0,44,0.00,,,0.00,VWS V14.00,2013-05-14 07:22:00,
2013-05-14 03:28:00,47.8,27.5,29.81,South,181,2.7,2.7,45,0.00,,,0.00,VWS V14.00,2013-05-14 07:28:00,
2013-05-14 03:33:00,47.8,27.5,29.81,West,271,2.7,2.7,45,0.00,,,0.00,VWS V14.00,2013-05-14 07:33:00,
2013-05-14 03:39:00,48.0,27.2,29.81,SSW,211,0.0,0.0,44,0.00,,,0.00,VWS V14.00,2013-05-14 07:39:00,
2013-05-14 03:44:00,48.0,27.7,29.81,WNW,283,0.0,0.0,45,0.00,,,0.00,VWS V14.00,2013-05-14 07:44:00,
2013-05-14 03:50:00,48.0,27.2,29.81,WSW,258,3.1,3.1,44,0.00,,,0.00,VWS V14.00,2013-05-14 07:50:00,
2013-05-14 03:55:00,48.0,27.2,29.81,WSW,241,0.0,3.1,44,0.00,,,0.00,VWS V14.00,2013-05-14 07:55:00,
2013-05-14 04:01:00,48.2,26.8,29.81,NNE,24,0.0,0.0,43,0.00,,,0.00,VWS V14.00,2013-05-14 08:01:00,
2013-05-14 04:06:00,48.2,26.8,29.81,NW,306,0.0,2.2,43,0.00,,,0.00,VWS V14.00,2013-05-14 08:06:00,
2013-05-14 04:11:00,48.4,26.4,29.81,SE,127,3.1,3.1,42,0.00,,,0.00,VWS V14.00,2013-05-14 08:11:00,
2013-05-14 04:17:00,48.4,25.8,29.78,SW,222,0.0,0.0,41,0.00,,,0.00,VWS V14.00,2013-05-14 08:17:00,
2013-05-14 04:22:00,48.6,26.0,29.78,North,350,0.0,2.2,41,0.00,,,0.00,VWS V14.00,2013-05-14 08:22:00,
2013-05-14 04:27:00,48.6,26.0,29.78,NE,35,0.0,0.0,41,0.00,,,0.00,VWS V14.00,2013-05-14 08:27:00,
2013-05-14 04:32:00,48.7,25.5,29.78,NW,306,0.0,2.2,40,0.00,,,0.00,VWS V14.00,2013-05-14 08:32:00,
2013-05-14 04:38:00,48.7,25.5,29.78,SE,145,3.1,3.1,40,0.00,,,0.00,VWS V14.00,2013-05-14 08:38:00,
2013-05-14 04:43:00,48.7,25.5,29.75,NNE,17,2.7,2.7,40,0.00,,,0.00,VWS V14.00,2013-05-14 08:43:00,
2013-05-14 04:48:00,48.9,25.7,29.75,SE,138,5.4,5.4,40,0.00,,,0.00,VWS V14.00,2013-05-14 08:48:00,
2013-05-14 04:53:00,48.9,25.7,29.75,SSE,157,0.0,0.0,40,0.00,,,0.00,VWS V14.00,2013-05-14 08:53:00,
2013-05-14 04:59:00,49.1,25.2,29.75,SE,131,2.7,3.1,39,0.00,,,0.00,VWS V14.00,2013-05-14 08:59:00,
2013-05-14 05:04:00,49.3,25.4,29.75,South,179,3.1,3.1,39,0.00,,,0.00,VWS V14.00,2013-05-14 09:04:00,
2013-05-14 05:10:00,49.5,24.9,29.75,SSE,156,4.0,4.0,38,0.00,,,0.00,VWS V14.00,2013-05-14 09:10:00,
2013-05-14 05:15:00,49.6,25.1,29.75,SE,138,2.2,2.2,38,0.00,,,0.00,VWS V14.00,2013-05-14 09:15:00,
2013-05-14 05:20:00,49.8,25.2,29.75,SSW,194,2.7,3.1,38,0.00,,,0.00,VWS V14.00,2013-05-14 09:20:00,
2013-05-14 05:25:00,49.8,25.2,29.75,West,276,2.7,2.7,38,0.00,,,0.00,VWS V14.00,2013-05-14 09:25:00,
2013-05-14 05:30:00,49.8,25.9,29.75,ENE,78,2.2,2.2,39,0.00,,,0.00,VWS V14.00,2013-05-14 09:30:00,
2013-05-14 05:35:00,49.8,25.9,29.75,WNW,287,2.2,3.1,39,0.00,,,0.00,VWS V14.00,2013-05-14 09:35:00,
2013-05-14 05:42:00,49.8,25.9,29.75,South,173,5.4,5.4,39,0.00,,,0.00,VWS V14.00,2013-05-14 09:42:00,
2013-05-14 05:47:00,49.8,25.9,29.75,South,176,3.1,3.1,39,0.00,,,0.00,VWS V14.00,2013-05-14 09:47:00,
2013-05-14 05:53:00,49.8,25.9,29.75,South,190,5.8,5.8,39,0.00,,,0.00,VWS V14.00,2013-05-14 09:53:00,
2013-05-14 05:59:00,49.6,25.7,29.75,SSW,197,2.7,3.1,39,0.00,,,0.00,VWS V14.00,2013-05-14 09:59:00,
2013-05-14 06:04:00,49.8,25.9,29.75,East,98,3.1,3.1,39,0.00,,,0.00,VWS V14.00,2013-05-14 10:04:00,
2013-05-14 06:10:00,49.6,25.7,29.75,SW,215,3.1,3.1,39,0.00,,,0.00,VWS V14.00,2013-05-14 10:10:00,
2013-05-14 06:15:00,49.8,25.9,29.75,South,191,0.0,3.1,39,0.00,,,0.00,VWS V14.00,2013-05-14 10:15:00,
2013-05-14 06:20:00,49.8,25.9,29.72,SSW,193,5.4,5.4,39,0.00,,,0.00,VWS V14.00,2013-05-14 10:20:00,
2013-05-14 06:25:00,49.8,25.9,29.72,South,173,3.1,4.9,39,0.00,,,0.00,VWS V14.00,2013-05-14 10:25:00,
2013-05-14 06:30:00,49.8,26.5,29.72,SSW,209,3.1,3.1,40,0.00,,,0.00,VWS V14.00,2013-05-14 10:30:00,
2013-05-14 06:36:00,49.8,26.5,29.72,WSW,253,2.2,2.2,40,0.00,,,0.00,VWS V14.00,2013-05-14 10:36:00,
2013-05-14 06:42:00,49.8,27.1,29.72,SSW,207,3.1,3.6,41,0.00,,,0.00,VWS V14.00,2013-05-14 10:42:00,
2013-05-14 06:47:00,49.8,27.1,29.72,SSE,148,2.7,2.7,41,0.00,,,0.00,VWS V14.00,2013-05-14 10:47:00,
2013-05-14 06:52:00,49.8,27.1,29.72,ESE,113,3.1,3.1,41,0.00,,,0.00,VWS V14.00,2013-05-14 10:52:00,
2013-05-14 06:58:00,49.8,27.7,29.72,SW,233,0.0,0.0,42,0.00,,,0.00,VWS V14.00,2013-05-14 10:58:00,
2013-05-14 07:03:00,50.0,27.2,29.72,SE,124,0.0,0.0,41,0.00,,,0.00,VWS V14.00,2013-05-14 11:03:00,
2013-05-14 07:08:00,50.0,27.8,29.72,WSW,239,0.0,3.1,42,0.00,,,0.00,VWS V14.00,2013-05-14 11:08:00,
2013-05-14 07:13:00,50.0,27.8,29.72,East,87,2.2,2.2,42,0.00,,,0.00,VWS V14.00,2013-05-14 11:13:00,
2013-05-14 07:18:00,50.2,28.0,29.72,NW,323,2.7,3.6,42,0.00,,,0.00,VWS V14.00,2013-05-14 11:18:00,
2013-05-14 07:24:00,50.2,28.0,29.72,South,177,3.1,3.1,42,0.00,,,0.00,VWS V14.00,2013-05-14 11:24:00,
2013-05-14 07:29:00,50.2,28.6,29.72,SSW,200,3.1,3.6,43,0.00,,,0.00,VWS V14.00,2013-05-14 11:29:00,
2013-05-14 07:34:00,50.2,28.6,29.72,SSW,198,3.1,3.1,43,0.00,,,0.00,VWS V14.00,2013-05-14 11:34:00,
2013-05-14 07:40:00,50.4,28.7,29.72,South,170,0.0,3.6,43,0.00,,,0.00,VWS V14.00,2013-05-14 11:40:00,
2013-05-14 07:45:00,50.5,29.5,29.72,SSW,200,2.2,4.0,44,0.00,,,0.00,VWS V14.00,2013-05-14 11:45:00,
2013-05-14 07:50:00,50.7,30.2,29.72,WSW,239,3.1,3.1,45,0.00,,,0.00,VWS V14.00,2013-05-14 11:50:00,
2013-05-14 07:56:00,51.1,30.5,29.72,SE,140,0.0,3.6,45,0.00,,,0.00,VWS V14.00,2013-05-14 11:56:00,
2013-05-14 08:01:00,51.3,30.7,29.72,SSE,162,3.1,3.1,45,0.00,,,0.00,VWS V14.00,2013-05-14 12:01:00,
2013-05-14 08:06:00,51.6,31.5,29.72,South,179,2.7,5.8,46,0.00,,,0.00,VWS V14.00,2013-05-14 12:06:00,
2013-05-14 08:11:00,52.0,31.3,29.72,SSE,149,3.1,3.1,45,0.00,,,0.00,VWS V14.00,2013-05-14 12:11:00,
2013-05-14 08:17:00,52.3,31.6,29.72,South,183,4.0,5.4,45,0.00,,,0.00,VWS V14.00,2013-05-14 12:17:00,
2013-05-14 08:22:00,52.9,32.7,29.72,South,184,3.1,4.0,46,0.00,,,0.00,VWS V14.00,2013-05-14 12:22:00,
2013-05-14 08:27:00,53.2,32.5,29.72,SSW,207,3.1,6.3,45,0.00,,,0.00,VWS V14.00,2013-05-14 12:27:00,
2013-05-14 08:33:00,53.6,32.2,29.72,SSW,197,6.3,8.1,44,0.00,,,0.00,VWS V14.00,2013-05-14 12:33:00,
2013-05-14 08:38:00,53.6,31.7,29.72,SSW,201,4.0,5.8,43,0.00,,,0.00,VWS V14.00,2013-05-14 12:38:00,
2013-05-14 08:44:00,53.6,31.7,29.72,South,190,3.6,4.0,43,0.00,,,0.00,VWS V14.00,2013-05-14 12:44:00,
2013-05-14 08:49:00,53.8,32.4,29.72,SSW,205,4.9,4.9,44,0.00,,,0.00,VWS V14.00,2013-05-14 12:49:00,
2013-05-14 08:55:00,54.1,33.3,29.72,South,178,5.4,5.4,45,0.00,,,0.00,VWS V14.00,2013-05-14 12:55:00,
2013-05-14 09:01:00,54.1,33.3,29.72,South,173,4.0,4.0,45,0.00,,,0.00,VWS V14.00,2013-05-14 13:01:00,
2013-05-14 09:06:00,55.0,33.5,29.72,SSW,202,7.6,8.3,44,0.00,,,0.00,VWS V14.00,2013-05-14 13:06:00,
2013-05-14 09:12:00,55.8,34.2,29.72,South,177,5.8,5.8,44,0.00,,,0.00,VWS V14.00,2013-05-14 13:12:00,
2013-05-14 09:18:00,56.1,35.1,29.72,South,181,3.6,3.6,45,0.00,,,0.00,VWS V14.00,2013-05-14 13:18:00,
2013-05-14 09:23:00,56.8,35.7,29.72,SSW,202,8.7,11.0,45,0.00,,,0.00,VWS V14.00,2013-05-14 13:23:00,
2013-05-14 09:28:00,57.4,35.1,29.72,South,176,5.8,5.8,43,0.00,,,0.00,VWS V14.00,2013-05-14 13:28:00,
2013-05-14 09:33:00,57.4,35.1,29.72,South,182,3.1,7.6,43,0.00,,,0.00,VWS V14.00,2013-05-14 13:33:00,
2013-05-14 09:39:00,57.9,36.2,29.72,South,186,4.9,4.9,44,0.00,,,0.00,VWS V14.00,2013-05-14 13:39:00,
2013-05-14 09:44:00,57.9,36.7,29.72,SW,230,4.9,4.9,45,0.00,,,0.00,VWS V14.00,2013-05-14 13:44:00,
2013-05-14 09:50:00,58.6,37.4,29.72,SSW,197,4.5,5.4,45,0.00,,,0.00,VWS V14.00,2013-05-14 13:50:00,
2013-05-14 09:55:00,59.0,37.7,29.72,SSW,210,8.3,8.3,45,0.00,,,0.00,VWS V14.00,2013-05-14 13:55:00,
2013-05-14 10:00:00,60.1,38.1,29.72,SSW,206,5.8,5.8,44,0.00,,,0.00,VWS V14.00,2013-05-14 14:00:00,
2013-05-14 10:05:00,61.0,38.3,29.72,South,170,8.3,8.3,43,0.00,,,0.00,VWS V14.00,2013-05-14 14:05:00,
2013-05-14 10:10:00,61.0,38.3,29.72,SW,228,4.0,8.1,43,0.00,,,0.00,VWS V14.00,2013-05-14 14:10:00,
2013-05-14 10:16:00,61.9,39.2,29.72,SSW,207,7.6,11.9,43,0.00,,,0.00,VWS V14.00,2013-05-14 14:16:00,
2013-05-14 10:21:00,62.2,38.3,29.72,SW,221,8.3,8.3,41,0.00,,,0.00,VWS V14.00,2013-05-14 14:21:00,
2013-05-14 10:26:00,62.6,38.0,29.72,SSW,203,10.1,10.1,40,0.00,,,0.00,VWS V14.00,2013-05-14 14:26:00,
2013-05-14 10:31:00,62.8,38.8,29.72,SE,136,7.6,7.6,41,0.00,,,0.00,VWS V14.00,2013-05-14 14:31:00,
2013-05-14 10:36:00,63.0,40.1,29.72,SSW,209,10.1,10.1,43,0.00,,,0.00,VWS V14.00,2013-05-14 14:36:00,
2013-05-14 10:42:00,63.5,40.0,29.72,SSW,211,10.5,10.5,42,0.00,,,0.00,VWS V14.00,2013-05-14 14:42:00,
2013-05-14 10:47:00,63.9,39.1,29.72,South,184,7.6,7.6,40,0.00,,,0.00,VWS V14.00,2013-05-14 14:47:00,
2013-05-14 10:53:00,64.2,40.7,29.72,SSW,208,8.3,8.3,42,0.00,,,0.00,VWS V14.00,2013-05-14 14:53:00,
2013-05-14 10:58:00,64.6,40.4,29.60,SSW,194,7.6,7.6,41,0.00,,,0.00,VWS V14.00,2013-05-14 14:58:00,
2013-05-14 11:04:00,65.1,40.9,29.60,SSW,211,5.8,5.8,41,0.00,,,0.00,VWS V14.00,2013-05-14 15:04:00,
2013-05-14 11:10:00,65.3,41.6,29.60,SW,220,8.1,8.1,42,0.00,,,0.00,VWS V14.00,2013-05-14 15:10:00,
2013-05-14 11:15:00,66.0,42.9,29.60,SW,215,11.4,11.4,43,0.00,,,0.00,VWS V14.00,2013-05-14 15:15:00,
2013-05-14 11:21:00,66.2,43.1,29.60,South,186,5.8,8.3,43,0.00,,,0.00,VWS V14.00,2013-05-14 15:21:00,
2013-05-14 11:26:00,66.6,43.4,29.60,SSW,209,7.6,8.3,43,0.00,,,0.00,VWS V14.00,2013-05-14 15:26:00,
2013-05-14 11:32:00,67.3,43.4,29.60,ESE,118,11.0,11.0,42,0.00,,,0.00,VWS V14.00,2013-05-14 15:32:00,
2013-05-14 11:37:00,67.5,44.2,29.60,SW,214,11.0,11.0,43,0.00,,,0.00,VWS V14.00,2013-05-14 15:37:00,
2013-05-14 11:43:00,67.8,44.5,29.60,SSW,211,8.7,8.7,43,0.00,,,0.00,VWS V14.00,2013-05-14 15:43:00,
2013-05-14 11:49:00,68.2,44.9,29.60,West,278,4.0,5.8,43,0.00,,,0.00,VWS V14.00,2013-05-14 15:49:00,
2013-05-14 11:54:00,68.5,45.2,29.60,SSW,201,8.1,8.1,43,0.00,,,0.00,VWS V14.00,2013-05-14 15:54:00,
2013-05-14 12:00:00,68.5,45.2,29.60,WSW,245,7.6,7.6,43,0.00,,,0.00,VWS V14.00,2013-05-14 16:00:00,
2013-05-14 12:05:00,69.4,46.0,29.60,SSW,193,3.1,11.0,43,0.00,,,0.00,VWS V14.00,2013-05-14 16:05:00,
2013-05-14 12:11:00,69.6,46.2,29.60,SSW,193,3.6,3.6,43,0.00,,,0.00,VWS V14.00,2013-05-14 16:11:00,
2013-05-14 12:16:00,70.0,46.5,29.60,West,267,7.6,13.2,43,0.00,,,0.00,VWS V14.00,2013-05-14 16:16:00,
2013-05-14 12:21:00,70.2,46.6,29.60,SW,219,6.3,10.5,43,0.00,,,0.00,VWS V14.00,2013-05-14 16:21:00,
2013-05-14 12:27:00,70.5,47.0,29.60,SSW,195,8.3,8.3,43,0.00,,,0.00,VWS V14.00,2013-05-14 16:27:00,
2013-05-14 12:32:00,70.9,46.7,29.60,WSW,238,6.3,11.9,42,0.00,,,0.00,VWS V14.00,2013-05-14 16:32:00,
2013-05-14 12:37:00,71.1,46.8,29.60,SW,229,7.6,7.6,42,0.00,,,0.00,VWS V14.00,2013-05-14 16:37:00,
2013-05-14 12:42:00,71.4,47.2,29.60,SSW,195,10.5,10.5,42,0.00,,,0.00,VWS V14.00,2013-05-14 16:42:00,
2013-05-14 12:48:00,71.4,47.2,29.60,South,190,14.1,14.1,42,0.00,,,0.00,VWS V14.00,2013-05-14 16:48:00,
2013-05-14 12:53:00,71.6,46.0,29.60,SW,221,5.8,9.2,40,0.00,,,0.00,VWS V14.00,2013-05-14 16:53:00,
2013-05-14 12:59:00,72.1,47.2,29.60,SW,226,8.7,8.7,41,0.00,,,0.00,VWS V14.00,2013-05-14 16:59:00,
2013-05-14 13:04:00,72.1,47.2,29.60,West,275,5.8,5.8,41,0.00,,,0.00,VWS V14.00,2013-05-14 17:04:00,
2013-05-14 13:10:00,72.7,47.0,29.60,WNW,282,8.7,8.7,40,0.00,,,0.00,VWS V14.00,2013-05-14 17:10:00,
2013-05-14 13:16:00,72.9,47.8,29.60,WSW,245,4.9,5.4,41,0.00,,,0.00,VWS V14.00,2013-05-14 17:16:00,
2013-05-14 13:21:00,72.9,47.8,29.60,SSW,212,8.1,8.7,41,0.00,,,0.00,VWS V14.00,2013-05-14 17:21:00,
2013-05-14 13:26:00,73.6,47.1,29.60,SSW,209,4.0,8.1,39,0.00,,,0.00,VWS V14.00,2013-05-14 17:26:00,
2013-05-14 13:31:00,73.8,47.3,29.60,WSW,240,7.6,8.1,39,0.00,,,0.00,VWS V14.00,2013-05-14 17:31:00,
2013-05-14 13:36:00,73.9,47.5,29.60,WSW,243,3.6,3.6,39,0.00,,,0.00,VWS V14.00,2013-05-14 17:36:00,
2013-05-14 13:42:00,74.1,46.9,29.60,SSW,202,11.0,11.0,38,0.00,,,0.00,VWS V14.00,2013-05-14 17:42:00,
2013-05-14 13:47:00,74.1,47.6,29.60,SW,219,4.0,4.0,39,0.00,,,0.00,VWS V14.00,2013-05-14 17:47:00,
2013-05-14 13:52:00,74.5,47.2,29.60,SW,222,5.4,8.1,38,0.00,,,0.00,VWS V14.00,2013-05-14 17:52:00,
2013-05-14 13:57:00,74.5,47.2,29.60,WSW,258,5.4,6.3,38,0.00,,,0.00,VWS V14.00,2013-05-14 17:57:00,
2013-05-14 14:03:00,75.2,47.9,29.60,SW,229,5.4,8.3,38,0.00,,,0.00,VWS V14.00,2013-05-14 18:03:00,
2013-05-14 14:09:00,75.6,48.2,29.60,SW,231,5.4,5.4,38,0.00,,,0.00,VWS V14.00,2013-05-14 18:09:00,
2013-05-14 14:14:00,75.7,48.4,29.60,WSW,244,4.5,7.6,38,0.00,,,0.00,VWS V14.00,2013-05-14 18:14:00,
2013-05-14 14:19:00,76.3,46.7,29.60,WSW,247,8.7,8.7,35,0.00,,,0.00,VWS V14.00,2013-05-14 18:19:00,
2013-05-14 14:24:00,76.1,48.0,29.60,WSW,252,3.6,3.6,37,0.00,,,0.00,VWS V14.00,2013-05-14 18:24:00,
2013-05-14 14:30:00,76.5,48.3,29.60,SSW,211,8.3,8.3,37,0.00,,,0.00,VWS V14.00,2013-05-14 18:30:00,
2013-05-14 14:35:00,76.6,47.7,29.60,South,179,9.6,9.6,36,0.00,,,0.00,VWS V14.00,2013-05-14 18:35:00,
2013-05-14 14:41:00,76.8,47.9,29.60,WSW,244,6.3,6.3,36,0.00,,,0.00,VWS V14.00,2013-05-14 18:41:00,
2013-05-14 14:46:00,77.2,48.2,29.60,NNW,332,5.4,5.4,36,0.00,,,0.00,VWS V14.00,2013-05-14 18:46:00,
2013-05-14 14:51:00,77.5,47.8,29.60,SW,226,7.6,7.6,35,0.00,,,0.00,VWS V14.00,2013-05-14 18:51:00,
2013-05-14 14:56:00,77.7,47.9,29.60,WSW,246,3.6,4.9,35,0.00,,,0.00,VWS V14.00,2013-05-14 18:56:00,
2013-05-14 15:02:00,77.9,48.1,29.60,North,353,4.9,4.9,35,0.00,,,0.00,VWS V14.00,2013-05-14 19:02:00,
2013-05-14 15:08:00,78.3,49.1,29.60,SSW,202,6.3,6.3,36,0.00,,,0.00,VWS V14.00,2013-05-14 19:08:00,
2013-05-14 15:13:00,78.3,48.4,29.60,South,187,6.3,7.6,35,0.00,,,0.00,VWS V14.00,2013-05-14 19:13:00,
2013-05-14 15:19:00,78.4,48.5,29.60,SW,221,5.4,5.4,35,0.00,,,0.00,VWS V14.00,2013-05-14 19:19:00,
2013-05-14 15:24:00,78.6,48.7,29.60,WSW,238,6.3,6.3,35,0.00,,,0.00,VWS V14.00,2013-05-14 19:24:00,
2013-05-14 15:30:00,79.0,48.2,29.60,WSW,256,6.3,6.3,34,0.00,,,0.00,VWS V14.00,2013-05-14 19:30:00,
2013-05-14 15:35:00,78.8,48.1,29.60,SW,220,5.8,5.8,34,0.00,,,0.00,VWS V14.00,2013-05-14 19:35:00,
2013-05-14 15:41:00,78.6,47.9,29.60,WSW,244,4.0,4.0,34,0.00,,,0.00,VWS V14.00,2013-05-14 19:41:00,
2013-05-14 15:46:00,78.6,47.9,29.60,SW,232,10.1,10.1,34,0.00,,,0.00,VWS V14.00,2013-05-14 19:46:00,
2013-05-14 15:52:00,78.6,48.7,29.60,West,264,6.3,6.3,35,0.00,,,0.00,VWS V14.00,2013-05-14 19:52:00,
2013-05-14 15:57:00,78.4,47.8,29.60,West,264,6.3,6.3,34,0.00,,,0.00,VWS V14.00,2013-05-14 19:57:00,
2013-05-14 16:02:00,78.1,48.2,29.60,WSW,250,0.0,0.0,35,0.00,,,0.00,VWS V14.00,2013-05-14 20:02:00,
2013-05-14 16:07:00,78.1,47.5,29.60,SW,214,6.3,6.3,34,0.00,,,0.00,VWS V14.00,2013-05-14 20:07:00,
2013-05-14 16:12:00,77.7,48.7,29.60,SW,226,4.0,4.0,36,0.00,,,0.00,VWS V14.00,2013-05-14 20:12:00,
2013-05-14 16:18:00,77.2,48.2,29.60,West,277,5.8,5.8,36,0.00,,,0.00,VWS V14.00,2013-05-14 20:18:00,
2013-05-14 16:23:00,77.2,48.2,29.60,SW,214,2.2,5.8,36,0.00,,,0.00,VWS V14.00,2013-05-14 20:23:00,
2013-05-14 16:29:00,76.8,48.6,29.60,NNW,331,2.2,4.0,37,0.00,,,0.00,VWS V14.00,2013-05-14 20:29:00,
2013-05-14 16:34:00,76.1,47.2,29.60,SW,219,8.3,8.3,36,0.00,,,0.00,VWS V14.00,2013-05-14 20:34:00,
2013-05-14 16:39:00,75.4,47.3,29.60,WSW,239,3.6,4.9,37,0.00,,,0.00,VWS V14.00,2013-05-14 20:39:00,
2013-05-14 16:44:00,75.0,48.4,29.60,West,268,5.4,5.8,39,0.00,,,0.00,VWS V14.00,2013-05-14 20:44:00,
2013-05-14 16:49:00,74.7,48.1,29.60,WNW,289,5.4,5.4,39,0.00,,,0.00,VWS V14.00,2013-05-14 20:49:00,
2013-05-14 16:54:00,74.1,47.6,29.60,WSW,253,5.4,6.3,39,0.00,,,0.00,VWS V14.00,2013-05-14 20:54:00,
2013-05-14 16:59:00,73.9,47.5,29.60,SW,233,4.0,4.0,39,0.00,,,0.00,VWS V14.00,2013-05-14 20:59:00,
2013-05-14 17:05:00,73.0,48.0,29.60,WSW,245,6.3,6.3,41,0.00,,,0.00,VWS V14.00,2013-05-14 21:05:00,
2013-05-14 17:11:00,72.5,47.5,29.60,WSW,243,3.1,5.8,41,0.00,,,0.00,VWS V14.00,2013-05-14 21:11:00,
2013-05-14 17:16:00,72.1,47.8,29.60,SW,215,3.1,3.6,42,0.00,,,0.00,VWS V14.00,2013-05-14 21:16:00,
2013-05-14 17:22:00,71.8,47.5,29.60,SW,226,5.8,5.8,42,0.00,,,0.00,VWS V14.00,2013-05-14 21:22:00,
2013-05-14 17:27:00,71.6,47.3,29.60,SW,227,2.7,2.7,42,0.00,,,0.00,VWS V14.00,2013-05-14 21:27:00,
2013-05-14 17:32:00,71.4,47.8,29.60,West,279,4.9,4.9,43,0.00,,,0.00,VWS V14.00,2013-05-14 21:32:00,
2013-05-14 17:37:00,71.4,47.8,29.60,SW,234,3.6,3.6,43,0.00,,,0.00,VWS V14.00,2013-05-14 21:37:00,
2013-05-14 17:42:00,71.8,47.5,29.60,SW,234,3.6,3.6,42,0.00,,,0.00,VWS V14.00,2013-05-14 21:42:00,
2013-05-14 17:47:00,72.3,48.6,29.57,SW,234,3.6,3.6,43,0.00,,,0.00,VWS V14.00,2013-05-14 21:47:00,
2013-05-14 17:52:00,73.2,49.4,29.57,SW,234,3.6,3.6,43,0.00,,,0.00,VWS V14.00,2013-05-14 21:52:00,
2013-05-14 17:58:00,74.1,49.6,29.57,SW,234,3.6,3.6,42,0.00,,,0.00,VWS V14.00,2013-05-14 21:58:00,
2013-05-14 18:03:00,74.8,49.6,29.57,SW,234,3.6,3.6,41,0.00,,,0.00,VWS V14.00,2013-05-14 22:03:00,
2013-05-14 18:08:00,75.2,48.6,29.57,SSW,213,3.6,5.4,39,0.00,,,0.00,VWS V14.00,2013-05-14 22:08:00,
2013-05-14 18:14:00,75.2,48.6,29.57,SSW,202,4.9,5.8,39,0.00,,,0.00,VWS V14.00,2013-05-14 22:14:00,
2013-05-14 18:19:00,74.7,48.1,29.57,SSW,196,5.8,5.8,39,0.00,,,0.00,VWS V14.00,2013-05-14 22:19:00,
2013-05-14 18:24:00,73.9,48.1,29.57,SW,226,3.1,3.1,40,0.00,,,0.00,VWS V14.00,2013-05-14 22:24:00,
2013-05-14 18:29:00,73.4,47.6,29.57,WSW,239,3.6,3.6,40,0.00,,,0.00,VWS V14.00,2013-05-14 22:29:00,
2013-05-14 18:35:00,72.5,47.5,29.57,SSW,196,3.6,3.6,41,0.00,,,0.00,VWS V14.00,2013-05-14 22:35:00,
2013-05-14 18:40:00,72.0,47.6,29.57,SSW,213,2.7,3.6,42,0.00,,,0.00,VWS V14.00,2013-05-14 22:40:00,
2013-05-14 18:45:00,71.6,47.3,29.57,SSW,199,3.1,3.1,42,0.00,,,0.00,VWS V14.00,2013-05-14 22:45:00,
2013-05-14 18:50:00,71.4,47.8,29.57,SSW,200,0.0,0.0,43,0.00,,,0.00,VWS V14.00,2013-05-14 22:50:00,
2013-05-14 18:55:00,71.4,48.4,29.57,SSW,200,0.0,0.0,44,0.00,,,0.00,VWS V14.00,2013-05-14 22:55:00,
2013-05-14 19:00:00,71.2,48.8,29.54,South,189,0.0,0.0,45,0.00,,,0.00,VWS V14.00,2013-05-14 23:00:00,
2013-05-14 19:05:00,71.1,48.7,29.54,SSE,162,0.0,0.0,45,0.00,,,0.00,VWS V14.00,2013-05-14 23:05:00,
2013-05-14 19:11:00,70.7,48.3,29.54,SW,225,0.0,0.0,45,0.00,,,0.00,VWS V14.00,2013-05-14 23:11:00,
2013-05-14 19:16:00,70.7,48.3,29.54,NE,38,0.0,0.0,45,0.00,,,0.00,VWS V14.00,2013-05-14 23:16:00,
2013-05-14 19:21:00,70.7,48.9,29.54,NNE,31,0.0,0.0,46,0.00,,,0.00,VWS V14.00,2013-05-14 23:21:00,
2013-05-14 19:26:00,70.7,50.1,29.54,SSW,213,5.4,5.4,48,0.00,,,0.00,VWS V14.00,2013-05-14 23:26:00,
2013-05-14 19:31:00,70.5,49.9,29.54,SSW,210,0.0,0.0,48,0.00,,,0.00,VWS V14.00,2013-05-14 23:31:00,
2013-05-14 19:37:00,70.7,50.1,29.54,SSW,208,0.0,2.7,48,0.00,,,0.00,VWS V14.00,2013-05-14 23:37:00,
2013-05-14 19:42:00,70.7,48.9,29.54,SSW,208,0.0,0.0,46,0.00,,,0.00,VWS V14.00,2013-05-14 23:42:00,
2013-05-14 19:48:00,71.1,48.7,29.57,SSW,212,3.1,3.1,45,0.00,,,0.00,VWS V14.00,2013-05-14 23:48:00,
2013-05-14 19:53:00,71.1,48.7,29.57,SSW,206,0.0,0.0,45,0.00,,,0.00,VWS V14.00,2013-05-14 23:53:00,
2013-05-14 19:59:00,70.7,48.9,29.57,SSW,206,0.0,0.0,46,0.00,,,0.00,VWS V14.00,2013-05-14 23:59:00,
2013-05-14 20:04:00,70.5,48.8,29.54,SSW,206,0.0,0.0,46,0.00,,,0.00,VWS V14.00,2013-05-15 00:04:00,
2013-05-14 20:10:00,70.3,49.2,29.54,SSW,200,0.0,0.0,47,0.00,,,0.00,VWS V14.00,2013-05-15 00:10:00,
2013-05-14 20:16:00,69.8,49.2,29.54,South,174,0.0,0.0,48,0.00,,,0.00,VWS V14.00,2013-05-15 00:16:00,
2013-05-14 20:21:00,69.8,49.2,29.54,SSW,201,3.1,3.1,48,0.00,,,0.00,VWS V14.00,2013-05-15 00:21:00,
2013-05-14 20:26:00,69.3,49.3,29.54,South,177,3.1,3.1,49,0.00,,,0.00,VWS V14.00,2013-05-15 00:26:00,
2013-05-14 20:31:00,69.1,49.7,29.51,SSW,199,2.7,3.1,50,0.00,,,0.00,VWS V14.00,2013-05-15 00:31:00,
2013-05-14 20:36:00,68.9,49.5,29.51,SSE,165,2.2,3.1,50,0.00,,,0.00,VWS V14.00,2013-05-15 00:36:00,
2013-05-14 20:41:00,68.5,49.7,29.51,South,187,0.0,0.0,51,0.00,,,0.00,VWS V14.00,2013-05-15 00:41:00,
2013-05-14 20:46:00,68.4,49.5,29.51,South,173,0.0,0.0,51,0.00,,,0.00,VWS V14.00,2013-05-15 00:46:00,
2013-05-14 20:52:00,68.4,49.5,29.51,South,172,0.0,0.0,51,0.00,,,0.00,VWS V14.00,2013-05-15 00:52:00,
2013-05-14 20:57:00,67.8,50.1,29.51,South,172,0.0,0.0,53,0.00,,,0.00,VWS V14.00,2013-05-15 00:57:00,
2013-05-14 21:02:00,67.5,50.2,29.51,South,173,0.0,0.0,54,0.00,,,0.00,VWS V14.00,2013-05-15 01:02:00,
2013-05-14 21:07:00,67.3,50.1,29.51,South,173,0.0,0.0,54,0.00,,,0.00,VWS V14.00,2013-05-15 01:07:00,
2013-05-14 21:13:00,67.3,50.1,29.51,South,173,0.0,0.0,54,0.00,,,0.00,VWS V14.00,2013-05-15 01:13:00,
2013-05-14 21:18:00,66.9,50.2,29.51,South,172,0.0,0.0,55,0.00,,,0.00,VWS V14.00,2013-05-15 01:18:00,
2013-05-14 21:23:00,66.6,50.4,29.51,South,173,0.0,0.0,56,0.00,,,0.00,VWS V14.00,2013-05-15 01:23:00,
2013-05-14 21:29:00,66.2,50.5,29.51,South,173,0.0,0.0,57,0.00,,,0.00,VWS V14.00,2013-05-15 01:29:00,
2013-05-14 21:34:00,66.0,50.8,29.51,South,172,0.0,0.0,58,0.00,,,0.00,VWS V14.00,2013-05-15 01:34:00,
2013-05-14 21:40:00,65.7,51.0,29.51,South,172,0.0,0.0,59,0.00,,,0.00,VWS V14.00,2013-05-15 01:40:00,
2013-05-14 21:45:00,65.5,51.2,29.51,South,172,0.0,0.0,60,0.00,,,0.00,VWS V14.00,2013-05-15 01:45:00,
2013-05-14 21:51:00,65.1,51.3,29.51,South,172,0.0,0.0,61,0.00,,,0.00,VWS V14.00,2013-05-15 01:51:00,
2013-05-14 21:56:00,64.4,51.5,29.51,South,172,0.0,0.0,63,0.00,,,0.00,VWS V14.00,2013-05-15 01:56:00,
2013-05-14 22:02:00,64.4,51.5,29.51,South,173,0.0,0.0,63,0.00,,,0.00,VWS V14.00,2013-05-15 02:02:00,
2013-05-14 22:07:00,63.9,51.5,29.51,South,172,0.0,0.0,64,0.00,,,0.00,VWS V14.00,2013-05-15 02:07:00,
2013-05-14 22:12:00,63.5,51.5,29.51,South,172,0.0,0.0,65,0.00,,,0.00,VWS V14.00,2013-05-15 02:12:00,
2013-05-14 22:17:00,63.1,51.2,29.51,South,173,0.0,0.0,65,0.00,,,0.00,VWS V14.00,2013-05-15 02:17:00,
2013-05-14 22:23:00,63.0,51.4,29.51,South,172,0.0,0.0,66,0.00,,,0.00,VWS V14.00,2013-05-15 02:23:00,
2013-05-14 22:28:00,62.6,51.1,29.51,South,172,0.0,0.0,66,0.00,,,0.00,VWS V14.00,2013-05-15 02:28:00,
2013-05-14 22:34:00,62.2,51.2,29.51,South,172,0.0,0.0,67,0.00,,,0.00,VWS V14.00,2013-05-15 02:34:00,
2013-05-14 22:39:00,62.1,51.4,29.51,South,172,0.0,0.0,68,0.00,,,0.00,VWS V14.00,2013-05-15 02:39:00,
2013-05-14 22:44:00,62.1,51.4,29.51,South,173,0.0,0.0,68,0.00,,,0.00,VWS V14.00,2013-05-15 02:44:00,
2013-05-14 22:49:00,61.7,51.4,29.51,South,172,0.0,0.0,69,0.00,,,0.00,VWS V14.00,2013-05-15 02:49:00,
2013-05-14 22:54:00,61.7,51.4,29.51,South,172,0.0,0.0,69,0.00,,,0.00,VWS V14.00,2013-05-15 02:54:00,
2013-05-14 23:00:00,61.3,51.5,29.51,South,172,0.0,0.0,70,0.00,,,0.00,VWS V14.00,2013-05-15 03:00:00,
2013-05-14 23:05:00,61.0,51.5,29.51,South,173,0.0,0.0,71,0.00,,,0.00,VWS V14.00,2013-05-15 03:05:00,
2013-05-14 23:11:00,61.0,51.5,29.51,South,172,0.0,0.0,71,0.00,,,0.00,VWS V14.00,2013-05-15 03:11:00,
2013-05-14 23:16:00,61.0,51.5,29.48,South,172,0.0,0.0,71,0.00,,,0.00,VWS V14.00,2013-05-15 03:16:00,
2013-05-14 23:21:00,60.4,51.8,29.48,South,172,0.0,0.0,73,0.00,,,0.00,VWS V14.00,2013-05-15 03:21:00,
2013-05-14 23:27:00,60.3,51.6,29.48,South,173,0.0,0.0,73,0.00,,,0.00,VWS V14.00,2013-05-15 03:27:00,
2013-05-14 23:32:00,60.3,52.0,29.48,South,172,0.0,0.0,74,0.00,,,0.00,VWS V14.00,2013-05-15 03:32:00,
2013-05-14 23:37:00,60.1,51.8,29.48,South,172,0.0,0.0,74,0.00,,,0.00,VWS V14.00,2013-05-15 03:37:00,
2013-05-14 23:42:00,60.1,52.1,29.48,South,172,0.0,0.0,75,0.00,,,0.00,VWS V14.00,2013-05-15 03:42:00,
2013-05-14 23:47:00,60.3,52.3,29.45,South,172,0.0,0.0,75,0.00,,,0.00,VWS V14.00,2013-05-15 03:47:00,
2013-05-14 23:53:00,60.4,52.8,29.45,SSE,166,0.0,3.1,76,0.00,,,0.00,VWS V14.00,2013-05-15 03:53:00,
2013-05-14 23:58:00,60.4,52.8,29.45,South,186,3.1,3.1,76,0.00,,,0.00,VWS V14.00,2013-05-15 03:58:00,